sensor_id;sensor_type;location;lat;lon;timestamp;P1;durP1;ratioP1;P2;durP2;ratioP2
57599;SDS011;43426;43.594;24.334;2023-08-31T00:00:02;9.25;;;8.35;;
57599;SDS011;43426;43.594;24.334;2023-08-31T00:02:29;11.48;;;8.57;;
57599;SDS011;43426;43.594;24.334;2023-08-31T00:04:54;12.05;;;8.75;;
57599;SDS011;43426;43.594;24.334;2023-08-31T00:07:21;9.63;;;8.63;;
57599;SDS011;43426;43.594;24.334;2023-08-31T00:09:46;10.40;;;9.05;;
57599;SDS011;43426;43.594;24.334;2023-08-31T00:12:14;14.60;;;8.55;;
57599;SDS011;43426;43.594;24.334;2023-08-31T00:14:39;11.25;;;8.25;;
57599;SDS011;43426;43.594;24.334;2023-08-31T00:17:05;13.02;;;8.52;;
57599;SDS011;43426;43.594;24.334;2023-08-31T00:19:30;10.50;;;8.35;;
57599;SDS011;43426;43.594;24.334;2023-08-31T00:21:55;15.52;;;8.95;;
57599;SDS011;43426;43.594;24.334;2023-08-31T00:24:21;11.55;;;9.43;;
57599;SDS011;43426;43.594;24.334;2023-08-31T00:26:48;9.60;;;8.50;;
57599;SDS011;43426;43.594;24.334;2023-08-31T00:29:16;9.73;;;8.65;;
57599;SDS011;43426;43.594;24.334;2023-08-31T00:31:41;9.77;;;8.65;;
57599;SDS011;43426;43.594;24.334;2023-08-31T00:34:09;9.23;;;8.32;;
57599;SDS011;43426;43.594;24.334;2023-08-31T00:36:42;10.90;;;8.68;;
57599;SDS011;43426;43.594;24.334;2023-08-31T00:39:08;9.70;;;8.70;;
57599;SDS011;43426;43.594;24.334;2023-08-31T00:41:35;12.38;;;8.90;;
57599;SDS011;43426;43.594;24.334;2023-08-31T00:44:01;15.35;;;8.48;;
57599;SDS011;43426;43.594;24.334;2023-08-31T00:46:29;14.75;;;8.38;;
57599;SDS011;43426;43.594;24.334;2023-08-31T00:48:56;11.82;;;8.23;;
57599;SDS011;43426;43.594;24.334;2023-08-31T00:51:22;11.65;;;8.55;;
57599;SDS011;43426;43.594;24.334;2023-08-31T00:53:48;9.30;;;8.38;;
57599;SDS011;43426;43.594;24.334;2023-08-31T00:56:18;9.25;;;8.32;;
57599;SDS011;43426;43.594;24.334;2023-08-31T00:58:44;9.60;;;8.30;;
57599;SDS011;43426;43.594;24.334;2023-08-31T01:12:22;12.88;;;8.63;;
57599;SDS011;43426;43.594;24.334;2023-08-31T01:15:05;9.48;;;8.57;;
57599;SDS011;43426;43.594;24.334;2023-08-31T01:17:39;11.35;;;9.00;;
57599;SDS011;43426;43.594;24.334;2023-08-31T01:20:08;8.82;;;8.02;;
57599;SDS011;43426;43.594;24.334;2023-08-31T01:22:55;13.00;;;8.77;;
57599;SDS011;43426;43.594;24.334;2023-08-31T01:25:24;13.65;;;9.27;;
57599;SDS011;43426;43.594;24.334;2023-08-31T01:27:50;9.82;;;8.25;;
57599;SDS011;43426;43.594;24.334;2023-08-31T01:30:16;9.70;;;8.73;;
57599;SDS011;43426;43.594;24.334;2023-08-31T01:32:45;15.05;;;8.82;;
57599;SDS011;43426;43.594;24.334;2023-08-31T01:35:11;9.75;;;8.20;;
57599;SDS011;43426;43.594;24.334;2023-08-31T01:37:50;10.95;;;9.35;;
57599;SDS011;43426;43.594;24.334;2023-08-31T01:40:17;9.50;;;8.60;;
57599;SDS011;43426;43.594;24.334;2023-08-31T01:43:04;9.65;;;8.85;;
57599;SDS011;43426;43.594;24.334;2023-08-31T01:45:31;10.43;;;9.20;;
57599;SDS011;43426;43.594;24.334;2023-08-31T01:48:02;10.57;;;9.55;;
57599;SDS011;43426;43.594;24.334;2023-08-31T01:50:28;10.30;;;8.93;;
57599;SDS011;43426;43.594;24.334;2023-08-31T01:52:54;10.10;;;8.60;;
57599;SDS011;43426;43.594;24.334;2023-08-31T01:55:20;13.95;;;9.05;;
57599;SDS011;43426;43.594;24.334;2023-08-31T01:57:46;10.70;;;9.10;;
57599;SDS011;43426;43.594;24.334;2023-08-31T02:00:13;10.05;;;9.05;;
57599;SDS011;43426;43.594;24.334;2023-08-31T02:02:41;10.00;;;8.80;;
57599;SDS011;43426;43.594;24.334;2023-08-31T02:05:07;10.35;;;8.98;;
57599;SDS011;43426;43.594;24.334;2023-08-31T02:07:33;10.20;;;9.40;;
57599;SDS011;43426;43.594;24.334;2023-08-31T02:10:02;9.88;;;8.98;;
57599;SDS011;43426;43.594;24.334;2023-08-31T02:12:31;10.63;;;9.50;;
57599;SDS011;43426;43.594;24.334;2023-08-31T02:14:56;10.60;;;9.60;;
57599;SDS011;43426;43.594;24.334;2023-08-31T02:17:22;9.98;;;9.00;;
57599;SDS011;43426;43.594;24.334;2023-08-31T02:19:47;10.50;;;9.13;;
57599;SDS011;43426;43.594;24.334;2023-08-31T02:22:13;11.80;;;9.35;;
57599;SDS011;43426;43.594;24.334;2023-08-31T02:24:38;9.23;;;8.20;;
57599;SDS011;43426;43.594;24.334;2023-08-31T02:27:04;12.32;;;8.63;;
57599;SDS011;43426;43.594;24.334;2023-08-31T02:29:29;11.68;;;8.52;;
57599;SDS011;43426;43.594;24.334;2023-08-31T02:31:54;12.77;;;8.68;;
57599;SDS011;43426;43.594;24.334;2023-08-31T02:34:22;9.95;;;9.02;;
57599;SDS011;43426;43.594;24.334;2023-08-31T02:36:47;9.68;;;8.70;;
57599;SDS011;43426;43.594;24.334;2023-08-31T02:39:13;11.45;;;9.82;;
57599;SDS011;43426;43.594;24.334;2023-08-31T02:41:39;11.98;;;10.07;;
57599;SDS011;43426;43.594;24.334;2023-08-31T02:44:04;11.10;;;10.00;;
57599;SDS011;43426;43.594;24.334;2023-08-31T02:46:30;11.75;;;9.57;;
57599;SDS011;43426;43.594;24.334;2023-08-31T02:48:56;9.98;;;9.13;;
57599;SDS011;43426;43.594;24.334;2023-08-31T02:51:21;10.05;;;9.05;;
57599;SDS011;43426;43.594;24.334;2023-08-31T02:53:47;9.48;;;8.63;;
57599;SDS011;43426;43.594;24.334;2023-08-31T02:56:12;10.30;;;9.25;;
57599;SDS011;43426;43.594;24.334;2023-08-31T02:58:40;10.45;;;9.18;;
57599;SDS011;43426;43.594;24.334;2023-08-31T03:01:09;10.25;;;9.32;;
57599;SDS011;43426;43.594;24.334;2023-08-31T03:03:39;14.15;;;10.02;;
57599;SDS011;43426;43.594;24.334;2023-08-31T03:06:06;12.50;;;9.70;;
57599;SDS011;43426;43.594;24.334;2023-08-31T03:08:33;12.10;;;9.80;;
57599;SDS011;43426;43.594;24.334;2023-08-31T03:13:24;13.85;;;11.32;;
57599;SDS011;43426;43.594;24.334;2023-08-31T03:15:50;12.35;;;10.68;;
57599;SDS011;43426;43.594;24.334;2023-08-31T03:18:15;17.30;;;10.70;;
57599;SDS011;43426;43.594;24.334;2023-08-31T03:20:41;11.60;;;10.10;;
57599;SDS011;43426;43.594;24.334;2023-08-31T03:23:06;15.85;;;10.90;;
57599;SDS011;43426;43.594;24.334;2023-08-31T03:25:31;11.38;;;10.27;;
57599;SDS011;43426;43.594;24.334;2023-08-31T03:30:22;16.77;;;11.00;;
57599;SDS011;43426;43.594;24.334;2023-08-31T03:32:47;12.55;;;10.82;;
57599;SDS011;43426;43.594;24.334;2023-08-31T03:35:13;12.27;;;10.93;;
57599;SDS011;43426;43.594;24.334;2023-08-31T03:37:38;17.17;;;11.43;;
57599;SDS011;43426;43.594;24.334;2023-08-31T03:40:04;14.75;;;11.07;;
57599;SDS011;43426;43.594;24.334;2023-08-31T03:42:31;16.75;;;11.93;;
57599;SDS011;43426;43.594;24.334;2023-08-31T03:47:22;13.13;;;10.38;;
57599;SDS011;43426;43.594;24.334;2023-08-31T03:49:47;14.77;;;11.25;;
57599;SDS011;43426;43.594;24.334;2023-08-31T03:52:13;20.20;;;11.45;;
57599;SDS011;43426;43.594;24.334;2023-08-31T03:54:38;13.10;;;11.30;;
57599;SDS011;43426;43.594;24.334;2023-08-31T03:57:04;16.58;;;11.57;;
57599;SDS011;43426;43.594;24.334;2023-08-31T03:59:29;12.25;;;11.02;;
57599;SDS011;43426;43.594;24.334;2023-08-31T04:01:55;13.82;;;11.18;;
57599;SDS011;43426;43.594;24.334;2023-08-31T04:04:20;15.38;;;11.30;;
57599;SDS011;43426;43.594;24.334;2023-08-31T04:06:46;18.60;;;11.40;;
57599;SDS011;43426;43.594;24.334;2023-08-31T04:09:11;14.25;;;10.82;;
57599;SDS011;43426;43.594;24.334;2023-08-31T04:11:37;13.70;;;11.77;;
57599;SDS011;43426;43.594;24.334;2023-08-31T04:14:02;13.48;;;12.02;;
57599;SDS011;43426;43.594;24.334;2023-08-31T04:16:28;12.43;;;11.23;;
57599;SDS011;43426;43.594;24.334;2023-08-31T04:18:54;13.15;;;10.95;;
57599;SDS011;43426;43.594;24.334;2023-08-31T04:21:20;21.95;;;12.52;;
57599;SDS011;43426;43.594;24.334;2023-08-31T04:23:45;15.98;;;12.77;;
57599;SDS011;43426;43.594;24.334;2023-08-31T04:26:11;11.57;;;10.45;;
57599;SDS011;43426;43.594;24.334;2023-08-31T04:28:38;20.92;;;12.43;;
57599;SDS011;43426;43.594;24.334;2023-08-31T04:31:07;16.52;;;12.45;;
57599;SDS011;43426;43.594;24.334;2023-08-31T04:33:36;13.70;;;12.27;;
57599;SDS011;43426;43.594;24.334;2023-08-31T04:36:03;15.88;;;12.02;;
57599;SDS011;43426;43.594;24.334;2023-08-31T04:38:30;14.68;;;12.45;;
57599;SDS011;43426;43.594;24.334;2023-08-31T04:41:02;17.75;;;13.25;;
57599;SDS011;43426;43.594;24.334;2023-08-31T04:43:28;14.10;;;11.82;;
57599;SDS011;43426;43.594;24.334;2023-08-31T04:45:54;16.05;;;12.95;;
57599;SDS011;43426;43.594;24.334;2023-08-31T04:48:20;14.23;;;12.07;;
57599;SDS011;43426;43.594;24.334;2023-08-31T04:50:48;19.48;;;13.20;;
57599;SDS011;43426;43.594;24.334;2023-08-31T04:53:13;15.15;;;11.50;;
57599;SDS011;43426;43.594;24.334;2023-08-31T04:55:39;12.13;;;10.15;;
57599;SDS011;43426;43.594;24.334;2023-08-31T04:58:04;11.57;;;10.43;;
57599;SDS011;43426;43.594;24.334;2023-08-31T05:00:30;11.40;;;10.43;;
57599;SDS011;43426;43.594;24.334;2023-08-31T05:02:56;12.55;;;11.35;;
57599;SDS011;43426;43.594;24.334;2023-08-31T05:05:21;11.43;;;10.25;;
57599;SDS011;43426;43.594;24.334;2023-08-31T05:07:47;11.85;;;10.70;;
57599;SDS011;43426;43.594;24.334;2023-08-31T05:10:12;11.60;;;10.45;;
57599;SDS011;43426;43.594;24.334;2023-08-31T05:12:38;11.10;;;10.02;;
57599;SDS011;43426;43.594;24.334;2023-08-31T05:15:03;13.23;;;10.88;;
57599;SDS011;43426;43.594;24.334;2023-08-31T05:17:29;11.45;;;10.25;;
57599;SDS011;43426;43.594;24.334;2023-08-31T05:19:56;10.40;;;9.40;;
57599;SDS011;43426;43.594;24.334;2023-08-31T05:22:21;12.65;;;10.38;;
57599;SDS011;43426;43.594;24.334;2023-08-31T05:24:47;13.38;;;10.23;;
57599;SDS011;43426;43.594;24.334;2023-08-31T05:27:12;18.98;;;11.55;;
57599;SDS011;43426;43.594;24.334;2023-08-31T05:29:38;13.77;;;10.27;;
57599;SDS011;43426;43.594;24.334;2023-08-31T05:32:03;18.80;;;10.43;;
57599;SDS011;43426;43.594;24.334;2023-08-31T05:34:29;15.23;;;10.40;;
57599;SDS011;43426;43.594;24.334;2023-08-31T05:36:57;11.82;;;10.38;;
57599;SDS011;43426;43.594;24.334;2023-08-31T05:39:23;12.25;;;9.40;;
57599;SDS011;43426;43.594;24.334;2023-08-31T05:41:49;15.45;;;9.30;;
57599;SDS011;43426;43.594;24.334;2023-08-31T05:44:14;20.02;;;8.90;;
57599;SDS011;43426;43.594;24.334;2023-08-31T05:46:40;12.23;;;8.23;;
57599;SDS011;43426;43.594;24.334;2023-08-31T05:49:06;10.93;;;7.18;;
57599;SDS011;43426;43.594;24.334;2023-08-31T05:51:32;11.52;;;7.95;;
57599;SDS011;43426;43.594;24.334;2023-08-31T05:53:57;10.88;;;7.68;;
57599;SDS011;43426;43.594;24.334;2023-08-31T05:56:23;11.25;;;7.15;;
57599;SDS011;43426;43.594;24.334;2023-08-31T05:58:48;7.28;;;6.57;;
57599;SDS011;43426;43.594;24.334;2023-08-31T06:01:15;8.73;;;6.38;;
57599;SDS011;43426;43.594;24.334;2023-08-31T06:03:40;8.38;;;6.68;;
57599;SDS011;43426;43.594;24.334;2023-08-31T06:06:06;6.57;;;3.55;;
57599;SDS011;43426;43.594;24.334;2023-08-31T06:08:32;5.30;;;3.28;;
57599;SDS011;43426;43.594;24.334;2023-08-31T06:10:59;2.30;;;1.52;;
57599;SDS011;43426;43.594;24.334;2023-08-31T06:13:25;2.15;;;1.70;;
57599;SDS011;43426;43.594;24.334;2023-08-31T06:15:50;3.38;;;1.52;;
57599;SDS011;43426;43.594;24.334;2023-08-31T06:18:16;12.15;;;2.47;;
57599;SDS011;43426;43.594;24.334;2023-08-31T06:20:41;2.78;;;1.70;;
57599;SDS011;43426;43.594;24.334;2023-08-31T06:23:07;2.55;;;1.80;;
57599;SDS011;43426;43.594;24.334;2023-08-31T06:25:34;4.65;;;1.75;;
57599;SDS011;43426;43.594;24.334;2023-08-31T06:27:59;4.03;;;1.90;;
57599;SDS011;43426;43.594;24.334;2023-08-31T06:30:25;2.67;;;1.48;;
57599;SDS011;43426;43.594;24.334;2023-08-31T06:32:53;1.92;;;1.50;;
57599;SDS011;43426;43.594;24.334;2023-08-31T06:35:18;3.10;;;1.52;;
57599;SDS011;43426;43.594;24.334;2023-08-31T06:37:44;4.10;;;1.50;;
57599;SDS011;43426;43.594;24.334;2023-08-31T06:40:10;4.72;;;1.65;;
57599;SDS011;43426;43.594;24.334;2023-08-31T06:42:36;3.70;;;1.40;;
57599;SDS011;43426;43.594;24.334;2023-08-31T06:45:06;3.00;;;1.80;;
57599;SDS011;43426;43.594;24.334;2023-08-31T06:47:32;3.35;;;1.42;;
57599;SDS011;43426;43.594;24.334;2023-08-31T06:49:58;4.07;;;1.70;;
57599;SDS011;43426;43.594;24.334;2023-08-31T06:52:27;3.47;;;1.90;;
57599;SDS011;43426;43.594;24.334;2023-08-31T06:54:53;7.07;;;1.50;;
57599;SDS011;43426;43.594;24.334;2023-08-31T06:57:23;6.38;;;1.80;;
57599;SDS011;43426;43.594;24.334;2023-08-31T06:59:49;4.45;;;1.77;;
57599;SDS011;43426;43.594;24.334;2023-08-31T07:02:15;5.53;;;2.00;;
57599;SDS011;43426;43.594;24.334;2023-08-31T07:04:40;3.50;;;1.52;;
57599;SDS011;43426;43.594;24.334;2023-08-31T07:07:06;4.03;;;1.63;;
57599;SDS011;43426;43.594;24.334;2023-08-31T07:09:33;1.67;;;1.58;;
57599;SDS011;43426;43.594;24.334;2023-08-31T07:11:59;2.55;;;1.63;;
57599;SDS011;43426;43.594;24.334;2023-08-31T07:14:24;5.13;;;2.13;;
57599;SDS011;43426;43.594;24.334;2023-08-31T07:16:51;3.42;;;2.15;;
57599;SDS011;43426;43.594;24.334;2023-08-31T07:19:16;3.97;;;2.20;;
57599;SDS011;43426;43.594;24.334;2023-08-31T07:21:41;4.78;;;1.70;;
57599;SDS011;43426;43.594;24.334;2023-08-31T07:24:07;3.90;;;2.13;;
57599;SDS011;43426;43.594;24.334;2023-08-31T07:26:33;3.33;;;1.98;;
57599;SDS011;43426;43.594;24.334;2023-08-31T07:29:00;2.72;;;1.73;;
57599;SDS011;43426;43.594;24.334;2023-08-31T07:31:26;2.25;;;1.98;;
57599;SDS011;43426;43.594;24.334;2023-08-31T07:33:52;2.78;;;2.10;;
57599;SDS011;43426;43.594;24.334;2023-08-31T07:36:17;2.22;;;1.85;;
57599;SDS011;43426;43.594;24.334;2023-08-31T07:38:43;3.72;;;2.17;;
57599;SDS011;43426;43.594;24.334;2023-08-31T07:41:08;3.83;;;2.08;;
57599;SDS011;43426;43.594;24.334;2023-08-31T07:43:34;3.25;;;1.70;;
57599;SDS011;43426;43.594;24.334;2023-08-31T07:45:59;3.55;;;1.52;;
57599;SDS011;43426;43.594;24.334;2023-08-31T07:48:24;5.60;;;2.00;;
57599;SDS011;43426;43.594;24.334;2023-08-31T07:50:50;3.55;;;1.75;;
57599;SDS011;43426;43.594;24.334;2023-08-31T07:53:15;3.15;;;1.50;;
57599;SDS011;43426;43.594;24.334;2023-08-31T07:55:50;3.40;;;2.03;;
57599;SDS011;43426;43.594;24.334;2023-08-31T07:58:16;3.92;;;1.60;;
57599;SDS011;43426;43.594;24.334;2023-08-31T08:00:41;2.35;;;1.60;;
57599;SDS011;43426;43.594;24.334;2023-08-31T08:03:07;2.80;;;1.42;;
57599;SDS011;43426;43.594;24.334;2023-08-31T08:05:32;5.07;;;1.90;;
57599;SDS011;43426;43.594;24.334;2023-08-31T08:07:57;4.07;;;1.85;;
57599;SDS011;43426;43.594;24.334;2023-08-31T08:10:23;5.53;;;2.03;;
57599;SDS011;43426;43.594;24.334;2023-08-31T08:12:48;5.10;;;1.80;;
57599;SDS011;43426;43.594;24.334;2023-08-31T08:15:14;3.80;;;1.77;;
57599;SDS011;43426;43.594;24.334;2023-08-31T08:17:39;3.47;;;1.90;;
57599;SDS011;43426;43.594;24.334;2023-08-31T08:20:05;4.97;;;1.70;;
57599;SDS011;43426;43.594;24.334;2023-08-31T08:22:32;3.03;;;2.10;;
57599;SDS011;43426;43.594;24.334;2023-08-31T08:24:57;2.08;;;1.60;;
57599;SDS011;43426;43.594;24.334;2023-08-31T08:27:22;1.58;;;1.48;;
57599;SDS011;43426;43.594;24.334;2023-08-31T08:29:48;1.35;;;1.17;;
57599;SDS011;43426;43.594;24.334;2023-08-31T08:32:15;3.13;;;1.40;;
57599;SDS011;43426;43.594;24.334;2023-08-31T08:34:41;2.85;;;1.67;;
57599;SDS011;43426;43.594;24.334;2023-08-31T08:37:06;1.70;;;1.55;;
57599;SDS011;43426;43.594;24.334;2023-08-31T08:39:32;3.92;;;1.75;;
57599;SDS011;43426;43.594;24.334;2023-08-31T08:42:03;3.58;;;1.40;;
57599;SDS011;43426;43.594;24.334;2023-08-31T08:44:32;3.30;;;1.50;;
57599;SDS011;43426;43.594;24.334;2023-08-31T08:47:01;2.28;;;1.48;;
57599;SDS011;43426;43.594;24.334;2023-08-31T08:49:27;3.17;;;1.55;;
57599;SDS011;43426;43.594;24.334;2023-08-31T08:51:55;3.50;;;1.85;;
57599;SDS011;43426;43.594;24.334;2023-08-31T08:54:22;2.33;;;1.42;;
57599;SDS011;43426;43.594;24.334;2023-08-31T08:56:47;2.00;;;1.55;;
57599;SDS011;43426;43.594;24.334;2023-08-31T08:59:13;4.50;;;1.75;;
57599;SDS011;43426;43.594;24.334;2023-08-31T09:01:39;2.38;;;1.40;;
57599;SDS011;43426;43.594;24.334;2023-08-31T09:04:05;2.47;;;1.45;;
57599;SDS011;43426;43.594;24.334;2023-08-31T09:06:31;5.82;;;1.50;;
57599;SDS011;43426;43.594;24.334;2023-08-31T09:08:57;2.00;;;1.33;;
57599;SDS011;43426;43.594;24.334;2023-08-31T09:11:23;2.28;;;1.23;;
57599;SDS011;43426;43.594;24.334;2023-08-31T09:13:49;2.55;;;1.25;;
57599;SDS011;43426;43.594;24.334;2023-08-31T09:16:28;1.35;;;1.00;;
57599;SDS011;43426;43.594;24.334;2023-08-31T09:18:55;1.55;;;1.17;;
57599;SDS011;43426;43.594;24.334;2023-08-31T09:21:36;4.15;;;2.08;;
57599;SDS011;43426;43.594;24.334;2023-08-31T09:24:05;1.67;;;1.13;;
57599;SDS011;43426;43.594;24.334;2023-08-31T09:26:39;3.25;;;1.05;;
57599;SDS011;43426;43.594;24.334;2023-08-31T09:29:08;2.00;;;1.30;;
57599;SDS011;43426;43.594;24.334;2023-08-31T09:31:33;2.72;;;1.23;;
57599;SDS011;43426;43.594;24.334;2023-08-31T09:33:59;3.38;;;1.80;;
57599;SDS011;43426;43.594;24.334;2023-08-31T09:36:24;2.05;;;1.33;;
57599;SDS011;43426;43.594;24.334;2023-08-31T09:38:51;4.88;;;1.20;;
57599;SDS011;43426;43.594;24.334;2023-08-31T09:41:16;3.33;;;0.90;;
57599;SDS011;43426;43.594;24.334;2023-08-31T09:43:42;3.65;;;1.00;;
57599;SDS011;43426;43.594;24.334;2023-08-31T09:46:08;2.15;;;1.23;;
57599;SDS011;43426;43.594;24.334;2023-08-31T09:48:34;2.85;;;1.08;;
57599;SDS011;43426;43.594;24.334;2023-08-31T09:51:03;2.05;;;1.02;;
57599;SDS011;43426;43.594;24.334;2023-08-31T09:53:29;3.90;;;1.65;;
57599;SDS011;43426;43.594;24.334;2023-08-31T09:55:56;1.67;;;1.30;;
57599;SDS011;43426;43.594;24.334;2023-08-31T09:58:22;1.75;;;1.40;;
57599;SDS011;43426;43.594;24.334;2023-08-31T10:00:50;3.05;;;1.40;;
57599;SDS011;43426;43.594;24.334;2023-08-31T10:03:16;2.30;;;1.30;;
57599;SDS011;43426;43.594;24.334;2023-08-31T10:05:45;4.00;;;1.90;;
57599;SDS011;43426;43.594;24.334;2023-08-31T10:08:12;2.30;;;1.42;;
57599;SDS011;43426;43.594;24.334;2023-08-31T10:10:41;1.77;;;1.10;;
57599;SDS011;43426;43.594;24.334;2023-08-31T10:13:07;3.55;;;1.30;;
57599;SDS011;43426;43.594;24.334;2023-08-31T10:15:36;2.42;;;1.17;;
57599;SDS011;43426;43.594;24.334;2023-08-31T10:18:05;3.20;;;1.40;;
57599;SDS011;43426;43.594;24.334;2023-08-31T10:20:32;5.68;;;1.40;;
57599;SDS011;43426;43.594;24.334;2023-08-31T10:23:02;2.15;;;1.30;;
57599;SDS011;43426;43.594;24.334;2023-08-31T10:34:14;4.65;;;1.52;;
57599;SDS011;43426;43.594;24.334;2023-08-31T10:36:21;3.25;;;1.20;;
57599;SDS011;43426;43.594;24.334;2023-08-31T10:39:11;4.40;;;1.20;;
57599;SDS011;43426;43.594;24.334;2023-08-31T10:41:44;3.05;;;1.33;;
57599;SDS011;43426;43.594;24.334;2023-08-31T10:46:46;3.55;;;1.50;;
57599;SDS011;43426;43.594;24.334;2023-08-31T10:49:17;1.80;;;1.02;;
57599;SDS011;43426;43.594;24.334;2023-08-31T10:51:45;2.42;;;1.38;;
57599;SDS011;43426;43.594;24.334;2023-08-31T10:54:21;2.25;;;1.30;;
57599;SDS011;43426;43.594;24.334;2023-08-31T10:59:40;2.50;;;1.20;;
57599;SDS011;43426;43.594;24.334;2023-08-31T11:05:12;4.25;;;1.35;;
57599;SDS011;43426;43.594;24.334;2023-08-31T11:07:42;4.07;;;1.08;;
57599;SDS011;43426;43.594;24.334;2023-08-31T11:12:39;2.55;;;1.13;;
57599;SDS011;43426;43.594;24.334;2023-08-31T11:15:06;2.38;;;1.00;;
57599;SDS011;43426;43.594;24.334;2023-08-31T11:17:32;2.83;;;1.00;;
57599;SDS011;43426;43.594;24.334;2023-08-31T11:19:58;2.78;;;1.13;;
57599;SDS011;43426;43.594;24.334;2023-08-31T11:22:24;1.30;;;1.00;;
57599;SDS011;43426;43.594;24.334;2023-08-31T11:24:52;1.23;;;0.90;;
57599;SDS011;43426;43.594;24.334;2023-08-31T11:27:21;1.67;;;0.98;;
57599;SDS011;43426;43.594;24.334;2023-08-31T11:29:47;2.55;;;1.08;;
57599;SDS011;43426;43.594;24.334;2023-08-31T11:32:12;1.55;;;1.15;;
57599;SDS011;43426;43.594;24.334;2023-08-31T11:34:42;1.95;;;0.98;;
57599;SDS011;43426;43.594;24.334;2023-08-31T11:37:09;2.38;;;0.95;;
57599;SDS011;43426;43.594;24.334;2023-08-31T11:39:42;1.15;;;0.93;;
57599;SDS011;43426;43.594;24.334;2023-08-31T11:42:13;1.42;;;0.90;;
57599;SDS011;43426;43.594;24.334;2023-08-31T11:44:38;2.85;;;0.95;;
57599;SDS011;43426;43.594;24.334;2023-08-31T11:47:04;2.15;;;1.05;;
57599;SDS011;43426;43.594;24.334;2023-08-31T11:49:30;1.13;;;0.80;;
57599;SDS011;43426;43.594;24.334;2023-08-31T11:51:56;4.68;;;1.17;;
57599;SDS011;43426;43.594;24.334;2023-08-31T11:54:24;2.10;;;1.13;;
57599;SDS011;43426;43.594;24.334;2023-08-31T11:56:50;4.20;;;1.00;;
57599;SDS011;43426;43.594;24.334;2023-08-31T11:59:17;2.60;;;0.90;;
57599;SDS011;43426;43.594;24.334;2023-08-31T12:01:47;3.50;;;1.30;;
57599;SDS011;43426;43.594;24.334;2023-08-31T12:04:13;1.70;;;1.17;;
57599;SDS011;43426;43.594;24.334;2023-08-31T12:06:52;1.98;;;1.30;;
57599;SDS011;43426;43.594;24.334;2023-08-31T12:09:24;2.08;;;1.27;;
57599;SDS011;43426;43.594;24.334;2023-08-31T12:11:52;1.27;;;0.80;;
57599;SDS011;43426;43.594;24.334;2023-08-31T12:14:25;5.05;;;1.00;;
57599;SDS011;43426;43.594;24.334;2023-08-31T12:16:52;1.90;;;0.80;;
57599;SDS011;43426;43.594;24.334;2023-08-31T12:19:29;2.22;;;0.93;;
57599;SDS011;43426;43.594;24.334;2023-08-31T12:21:55;1.73;;;1.20;;
57599;SDS011;43426;43.594;24.334;2023-08-31T12:24:24;2.08;;;0.95;;
57599;SDS011;43426;43.594;24.334;2023-08-31T12:26:50;1.77;;;0.93;;
57599;SDS011;43426;43.594;24.334;2023-08-31T12:29:18;1.63;;;1.08;;
57599;SDS011;43426;43.594;24.334;2023-08-31T12:31:44;1.52;;;0.70;;
57599;SDS011;43426;43.594;24.334;2023-08-31T12:34:09;2.38;;;1.15;;
57599;SDS011;43426;43.594;24.334;2023-08-31T12:36:36;1.52;;;1.08;;
57599;SDS011;43426;43.594;24.334;2023-08-31T12:39:05;4.72;;;0.82;;
57599;SDS011;43426;43.594;24.334;2023-08-31T12:41:38;1.17;;;0.90;;
57599;SDS011;43426;43.594;24.334;2023-08-31T12:44:04;2.28;;;0.93;;
57599;SDS011;43426;43.594;24.334;2023-08-31T12:46:30;1.63;;;0.70;;
57599;SDS011;43426;43.594;24.334;2023-08-31T12:48:56;0.90;;;0.63;;
57599;SDS011;43426;43.594;24.334;2023-08-31T12:51:21;2.47;;;0.90;;
57599;SDS011;43426;43.594;24.334;2023-08-31T12:53:47;1.52;;;0.85;;
57599;SDS011;43426;43.594;24.334;2023-08-31T12:56:13;1.40;;;0.95;;
57599;SDS011;43426;43.594;24.334;2023-08-31T12:58:40;1.40;;;0.80;;
57599;SDS011;43426;43.594;24.334;2023-08-31T13:01:05;1.77;;;0.80;;
57599;SDS011;43426;43.594;24.334;2023-08-31T13:03:31;1.45;;;0.70;;
57599;SDS011;43426;43.594;24.334;2023-08-31T13:05:56;3.17;;;1.23;;
57599;SDS011;43426;43.594;24.334;2023-08-31T13:08:22;3.90;;;1.10;;
57599;SDS011;43426;43.594;24.334;2023-08-31T13:10:50;1.13;;;0.93;;
57599;SDS011;43426;43.594;24.334;2023-08-31T13:13:19;3.85;;;1.08;;
57599;SDS011;43426;43.594;24.334;2023-08-31T13:15:46;3.03;;;1.00;;
57599;SDS011;43426;43.594;24.334;2023-08-31T13:18:14;1.63;;;1.10;;
57599;SDS011;43426;43.594;24.334;2023-08-31T13:20:39;3.22;;;1.17;;
57599;SDS011;43426;43.594;24.334;2023-08-31T13:23:06;1.90;;;1.15;;
57599;SDS011;43426;43.594;24.334;2023-08-31T13:25:33;1.85;;;0.90;;
57599;SDS011;43426;43.594;24.334;2023-08-31T13:27:59;1.55;;;0.90;;
57599;SDS011;43426;43.594;24.334;2023-08-31T13:30:25;2.05;;;1.00;;
57599;SDS011;43426;43.594;24.334;2023-08-31T13:32:50;1.60;;;1.10;;
57599;SDS011;43426;43.594;24.334;2023-08-31T13:35:15;3.47;;;0.98;;
57599;SDS011;43426;43.594;24.334;2023-08-31T13:37:41;2.58;;;1.10;;
57599;SDS011;43426;43.594;24.334;2023-08-31T13:40:07;2.17;;;1.05;;
57599;SDS011;43426;43.594;24.334;2023-08-31T13:42:34;2.70;;;1.15;;
57599;SDS011;43426;43.594;24.334;2023-08-31T13:45:03;2.63;;;1.00;;
57599;SDS011;43426;43.594;24.334;2023-08-31T13:47:32;1.88;;;1.40;;
57599;SDS011;43426;43.594;24.334;2023-08-31T13:49:57;2.88;;;1.55;;
57599;SDS011;43426;43.594;24.334;2023-08-31T13:52:23;4.18;;;1.05;;
57599;SDS011;43426;43.594;24.334;2023-08-31T13:54:51;1.80;;;1.05;;
57599;SDS011;43426;43.594;24.334;2023-08-31T13:57:17;1.38;;;1.20;;
57599;SDS011;43426;43.594;24.334;2023-08-31T13:59:43;2.13;;;1.10;;
57599;SDS011;43426;43.594;24.334;2023-08-31T14:02:09;2.25;;;1.10;;
57599;SDS011;43426;43.594;24.334;2023-08-31T14:04:35;4.00;;;1.63;;
57599;SDS011;43426;43.594;24.334;2023-08-31T14:07:02;2.45;;;1.08;;
57599;SDS011;43426;43.594;24.334;2023-08-31T14:09:29;4.97;;;1.33;;
57599;SDS011;43426;43.594;24.334;2023-08-31T14:11:54;3.92;;;1.50;;
57599;SDS011;43426;43.594;24.334;2023-08-31T14:14:22;3.33;;;0.90;;
57599;SDS011;43426;43.594;24.334;2023-08-31T14:16:48;4.25;;;1.30;;
57599;SDS011;43426;43.594;24.334;2023-08-31T14:19:17;2.47;;;1.00;;
57599;SDS011;43426;43.594;24.334;2023-08-31T14:21:45;1.30;;;0.80;;
57599;SDS011;43426;43.594;24.334;2023-08-31T14:24:10;1.25;;;0.98;;
57599;SDS011;43426;43.594;24.334;2023-08-31T14:26:36;1.70;;;0.70;;
57599;SDS011;43426;43.594;24.334;2023-08-31T14:29:01;1.00;;;0.82;;
57599;SDS011;43426;43.594;24.334;2023-08-31T14:31:27;2.25;;;1.00;;
57599;SDS011;43426;43.594;24.334;2023-08-31T14:33:52;1.13;;;0.65;;
57599;SDS011;43426;43.594;24.334;2023-08-31T14:36:18;1.25;;;0.70;;
57599;SDS011;43426;43.594;24.334;2023-08-31T14:38:44;1.83;;;0.70;;
57599;SDS011;43426;43.594;24.334;2023-08-31T14:41:10;0.95;;;0.77;;
57599;SDS011;43426;43.594;24.334;2023-08-31T14:43:36;1.02;;;0.80;;
57599;SDS011;43426;43.594;24.334;2023-08-31T14:46:02;0.82;;;0.80;;
57599;SDS011;43426;43.594;24.334;2023-08-31T14:48:28;1.00;;;0.65;;
57599;SDS011;43426;43.594;24.334;2023-08-31T14:50:54;0.35;;;0.30;;
57599;SDS011;43426;43.594;24.334;2023-08-31T14:53:20;1.42;;;0.70;;
57599;SDS011;43426;43.594;24.334;2023-08-31T14:55:51;4.75;;;0.95;;
57599;SDS011;43426;43.594;24.334;2023-08-31T14:58:17;1.40;;;0.73;;
57599;SDS011;43426;43.594;24.334;2023-08-31T15:00:43;1.05;;;0.80;;
57599;SDS011;43426;43.594;24.334;2023-08-31T15:03:08;2.97;;;0.80;;